Time;durP1;ratioP1;P1;durP2;ratioP2;P2;SDS_P1;SDS_P2;PMS_P1;PMS_P2;Temp;Humidity;BMP_temperature;BMP_pressure;BME280_temperature;BME280_humidity;BME280_pressure;Samples;Min_cycle;Max_cycle;Signal;HPM_P1;HPM_P2
2022/09/22 00:00:14;;;;;;;23.80;19.35;;;;;;;30.09;70.36;100659.19;5075288;27;70595;-38
2022/09/22 00:02:47;;;;;;;23.77;16.27;;;;;;;30.10;72.16;100650.88;5075545;28;66481;-38
2022/09/22 00:05:22;;;;;;;15.60;14.02;;;;;;;30.06;70.37;100646.94;5076728;28;70677;-38
2022/09/22 00:07:54;;;;;;;22.10;16.05;;;;;;;30.02;72.45;100629.50;5067995;28;66947;-39
2022/09/22 00:10:27;;;;;;;17.00;13.88;;;;;;;29.71;73.30;100582.53;5078863;27;69932;-37
2022/09/22 00:13:00;;;;;;;15.70;13.35;;;;;;;30.14;72.49;100649.34;5078308;28;66331;-39
2022/09/22 00:15:34;;;;;;;16.52;11.18;;;;;;;30.21;73.35;100649.31;5070765;28;70935;-39
2022/09/22 00:18:06;;;;;;;14.40;9.40;;;;;;;30.20;73.32;100651.22;5077342;28;66851;-38
2022/09/22 00:20:39;;;;;;;14.57;8.82;;;;;;;30.22;73.08;100657.22;5069034;28;70338;-37
2022/09/22 00:23:11;;;;;;;13.95;8.43;;;;;;;30.24;72.69;100665.97;5076746;27;67194;-38
2022/09/22 00:25:44;;;;;;;11.68;7.72;;;;;;;30.15;71.79;100656.44;5077959;27;70643;-38
2022/09/22 00:28:16;;;;;;;8.90;7.50;;;;;;;30.30;72.39;100685.06;5073797;27;66005;-38
2022/09/22 00:30:49;;;;;;;9.73;7.13;;;;;;;30.25;72.52;100691.97;5076498;28;68826;-39
2022/09/22 00:33:22;;;;;;;7.40;6.57;;;;;;;30.28;73.87;100702.38;5071596;27;65119;-42
2022/09/22 00:35:59;;;;;;;6.82;6.07;;;;;;;30.32;73.69;100720.88;5076884;27;70408;-40
2022/09/22 00:38:32;;;;;;;7.03;6.32;;;;;;;30.28;73.94;100710.50;5080739;27;66851;-40
2022/09/22 00:41:08;;;;;;;8.13;6.55;;;;;;;30.36;73.53;100719.38;5069645;28;69788;-40
2022/09/22 00:43:41;;;;;;;12.27;6.03;;;;;;;30.47;70.94;100719.47;5073991;27;66247;-40
2022/09/22 00:46:24;;;;;;;8.05;5.90;;;;;;;30.09;70.00;100668.16;5073522;28;71216;-38
2022/09/22 00:49:03;;;;;;;6.85;5.13;;;;;;;30.54;69.40;100738.38;5072869;28;66996;-38
2022/09/22 00:51:40;;;;;;;12.27;5.35;;;;;;;30.56;69.13;100733.53;5074883;28;71024;-39
2022/09/22 00:54:17;;;;;;;5.45;4.95;;;;;;;30.13;68.28;100665.81;5077068;28;67064;-36
2022/09/22 00:57:00;;;;;;;5.95;5.35;;;;;;;30.14;68.39;100671.00;5080171;27;70635;-37
2022/09/22 00:59:33;;;;;;;7.38;5.22;;;;;;;30.64;68.69;100746.81;5075473;28;66752;-38
2022/09/22 01:02:06;;;;;;;7.18;4.57;;;;;;;30.66;68.63;100752.84;5071370;28;70437;-38
2022/09/22 01:04:40;;;;;;;5.50;5.10;;;;;;;30.66;68.13;100752.00;5076492;28;66571;-38
2022/09/22 01:07:12;;;;;;;6.05;5.45;;;;;;;30.71;68.24;100757.59;5077310;27;71107;-37
2022/09/22 01:09:45;;;;;;;5.85;5.00;;;;;;;30.57;67.95;100739.81;5079776;27;66929;-38
2022/09/22 01:12:18;;;;;;;5.03;4.53;;;;;;;30.72;68.06;100770.88;5070837;28;70626;-38
2022/09/22 01:15:24;;;;;;;6.25;4.97;;;;;;;30.58;68.44;100776.66;5077172;28;67246;-37
2022/09/22 01:18:08;;;;;;;8.27;5.18;;;;;;;30.73;68.12;100772.56;5077798;27;70680;-39
2022/09/22 01:20:50;;;;;;;5.70;4.90;;;;;;;30.77;67.98;100774.81;5072903;28;66356;-39
2022/09/22 01:24:16;;;;;;;4.85;4.47;;;;;;;30.57;68.47;100783.94;5073661;28;70621;-39
2022/09/22 01:27:04;;;;;;;4.90;4.38;;;;;;;30.77;67.98;100782.94;4985799;28;67094;-37
2022/09/22 01:30:04;;;;;;;5.70;4.28;;;;;;;30.62;67.42;100770.59;5076383;27;70734;-38
2022/09/22 01:32:45;;;;;;;4.90;4.38;;;;;;;30.76;67.21;100797.53;5075695;28;67323;-38
2022/09/22 01:35:30;;;;;;;6.25;4.50;;;;;;;30.26;67.16;100707.16;5073401;28;69666;-37
2022/09/22 01:38:10;;;;;;;4.47;4.07;;;;;;;30.79;66.95;100794.41;5071870;28;66643;-38
2022/09/22 01:40:46;;;;;;;4.90;4.50;;;;;;;30.82;66.92;100805.63;5067495;28;71300;-37
2022/09/22 01:43:38;;;;;;;4.38;3.97;;;;;;;30.28;67.11;100717.75;5069378;28;66321;-38
2022/09/22 01:46:34;;;;;;;4.63;4.23;;;;;;;30.72;66.70;100802.56;5068112;28;71165;-39
2022/09/22 01:49:13;;;;;;;4.15;3.83;;;;;;;30.41;66.87;100714.13;5071710;28;66378;-40
2022/09/22 01:51:53;;;;;;;4.53;4.13;;;;;;;30.81;66.35;100787.72;5071776;28;70753;-39
2022/09/22 01:54:54;;;;;;;4.15;3.72;;;;;;;30.38;66.16;100715.38;5066351;28;66128;-40
2022/09/22 01:57:45;;;;;;;4.13;3.83;;;;;;;30.86;66.49;100803.31;5077828;28;70722;-39
2022/09/22 02:00:17;;;;;;;5.78;3.67;;;;;;;30.94;66.51;100800.31;5068418;28;66832;-38
2022/09/22 02:03:01;;;;;;;6.22;3.28;;;;;;;30.89;66.19;100803.69;5068355;28;70597;-38
2022/09/22 02:05:42;;;;;;;3.55;3.22;;;;;;;30.50;65.88;100723.59;5073521;28;66904;-37
2022/09/22 02:08:39;;;;;;;3.72;3.42;;;;;;;31.00;66.18;100793.19;5070843;28;70270;-39
2022/09/22 02:11:17;;;;;;;3.40;3.10;;;;;;;30.96;65.78;100803.66;5076523;28;66162;-40
2022/09/22 02:13:50;;;;;;;3.75;3.45;;;;;;;31.00;66.09;100791.28;5070840;28;70607;-39
2022/09/22 02:16:25;;;;;;;4.07;3.35;;;;;;;30.59;65.90;100716.03;5076825;28;66455;-39
2022/09/22 02:19:15;;;;;;;4.07;3.40;;;;;;;30.99;65.63;100792.34;5076605;28;71259;-39
2022/09/22 02:21:48;;;;;;;4.65;3.60;;;;;;;31.03;65.75;100785.44;5078902;28;66889;-40
2022/09/22 02:24:28;;;;;;;3.75;3.22;;;;;;;30.63;65.35;100712.66;5077813;28;69994;-38
2022/09/22 02:27:09;;;;;;;3.40;3.10;;;;;;;30.65;65.49;100710.56;5076960;28;66710;-40
2022/09/22 02:29:49;;;;;;;3.20;3.00;;;;;;;30.70;65.57;100729.69;5076918;28;71435;-38
2022/09/22 02:32:23;;;;;;;3.00;2.80;;;;;;;31.03;65.48;100766.47;5072165;28;66211;-38
2022/09/22 02:34:56;;;;;;;3.35;3.05;;;;;;;31.13;65.60;100776.78;5076475;28;70785;-38
2022/09/22 02:37:47;;;;;;;3.00;2.75;;;;;;;30.62;65.31;100711.03;5080577;27;65894;-38
2022/09/22 02:40:39;;;;;;;3.63;3.30;;;;;;;31.10;64.98;100771.84;5079358;28;70917;-38
2022/09/22 02:43:28;;;;;;;3.47;3.28;;;;;;;31.02;65.06;100756.69;5076522;28;66517;-38
2022/09/22 02:46:03;;;;;;;3.17;2.97;;;;;;;31.26;64.75;100776.66;5080338;28;70828;-38
2022/09/22 02:48:44;;;;;;;3.65;3.22;;;;;;;31.27;65.15;100766.66;5071868;28;67162;-36
2022/09/22 02:51:18;;;;;;;2.80;2.60;;;;;;;30.89;64.68;100706.19;5080934;27;70746;-39
2022/09/22 02:53:50;;;;;;;2.85;2.40;;;;;;;31.20;64.71;100755.84;5081489;27;66968;-36
2022/09/22 02:56:23;;;;;;;2.78;2.58;;;;;;;31.23;64.63;100758.16;5075681;27;69899;-38
2022/09/22 02:58:55;;;;;;;2.80;2.60;;;;;;;31.35;65.07;100769.88;5074906;28;66738;-37
2022/09/22 03:01:28;;;;;;;2.70;2.50;;;;;;;31.36;64.64;100770.72;5076232;28;70983;-39
2022/09/22 03:04:01;;;;;;;3.13;2.80;;;;;;;31.26;64.70;100748.72;5075969;28;66725;-38
2022/09/22 03:06:34;;;;;;;3.08;2.88;;;;;;;31.39;64.52;100773.00;5078122;28;70682;-38
2022/09/22 03:09:06;;;;;;;4.50;2.63;;;;;;;31.44;64.73;100773.13;5081717;28;67252;-37
2022/09/22 03:11:39;;;;;;;6.78;2.92;;;;;;;31.36;64.41;100760.72;5078536;28;70126;-39
2022/09/22 03:14:12;;;;;;;3.58;2.50;;;;;;;31.48;64.43;100779.78;5069857;28;66825;-38
2022/09/22 03:16:44;;;;;;;4.68;2.97;;;;;;;31.51;64.18;100782.03;5077863;28;70405;-39
2022/09/22 03:19:16;;;;;;;2.90;2.60;;;;;;;31.53;64.11;100782.63;5080015;28;67041;-39
2022/09/22 03:21:49;;;;;;;3.10;2.80;;;;;;;31.52;64.03;100788.28;5073353;28;70195;-39
2022/09/22 03:24:22;;;;;;;2.75;2.55;;;;;;;31.51;64.09;100773.91;5081762;28;66970;-39
2022/09/22 03:26:54;;;;;;;2.90;2.58;;;;;;;31.58;63.72;100785.47;5076860;28;70403;-39
2022/09/22 03:29:27;;;;;;;2.92;2.72;;;;;;;31.50;63.71;100771.41;5069365;28;67217;-38
2022/09/22 03:32:00;;;;;;;3.13;2.60;;;;;;;31.62;64.02;100785.84;5078367;28;70668;-40
2022/09/22 03:34:32;;;;;;;2.83;2.60;;;;;;;31.64;63.94;100772.88;5076097;28;67110;-37
2022/09/22 03:37:05;;;;;;;4.53;2.97;;;;;;;31.61;63.59;100774.16;5074078;27;69287;-38
2022/09/22 03:39:37;;;;;;;2.92;2.70;;;;;;;31.66;63.93;100775.38;5080683;27;67031;-38
2022/09/22 03:42:10;;;;;;;2.80;2.60;;;;;;;31.69;63.37;100783.88;5069991;28;71176;-40
2022/09/22 03:44:42;;;;;;;2.67;2.47;;;;;;;31.64;63.61;100764.75;5075428;27;67116;-38
2022/09/22 03:47:15;;;;;;;5.95;2.40;;;;;;;31.74;63.35;100761.50;5074757;28;70717;-38
2022/09/22 03:49:47;;;;;;;2.78;2.55;;;;;;;31.74;63.45;100756.91;5077027;28;66349;-37
2022/09/22 03:52:20;;;;;;;2.88;2.63;;;;;;;31.72;63.31;100750.06;5080084;28;70911;-38
2022/09/22 03:54:53;;;;;;;2.70;2.50;;;;;;;31.65;63.37;100733.03;5075964;28;66754;-39
2022/09/22 03:57:26;;;;;;;4.75;2.83;;;;;;;31.68;63.55;100736.13;5076791;27;70826;-39
2022/09/22 03:59:58;;;;;;;3.00;2.70;;;;;;;31.74;63.34;100734.41;5066293;28;66929;-39
2022/09/22 04:02:41;;;;;;;4.95;2.47;;;;;;;31.82;63.36;100743.03;5068582;28;70199;-39
2022/09/22 04:05:14;;;;;;;6.03;2.60;;;;;;;31.86;63.11;100735.25;5072629;27;65674;-40
2022/09/22 04:07:48;;;;;;;4.28;3.00;;;;;;;31.89;63.18;100740.22;5077484;28;71134;-38
2022/09/22 04:10:20;;;;;;;2.85;2.40;;;;;;;31.85;63.31;100717.34;5079034;28;66675;-40
2022/09/22 04:12:53;;;;;;;2.33;2.13;;;;;;;31.92;63.17;100718.06;5075822;28;70890;-41
2022/09/22 04:15:25;;;;;;;2.50;1.90;;;;;;;31.95;63.14;100708.66;5075491;28;66010;-38
2022/09/22 04:17:58;;;;;;;2.75;2.55;;;;;;;31.94;63.02;100701.59;5078085;28;69881;-40
2022/09/22 04:20:30;;;;;;;3.63;2.50;;;;;;;31.96;62.98;100689.44;5072932;28;66881;-38
2022/09/22 04:23:03;;;;;;;2.45;2.25;;;;;;;31.88;62.97;100669.94;5080508;27;69541;-39
2022/09/22 04:25:35;;;;;;;3.33;2.65;;;;;;;31.96;63.02;100678.59;5075502;27;66189;-38
2022/09/22 04:28:08;;;;;;;2.30;2.10;;;;;;;32.02;62.86;100685.78;5068499;28;70928;-38
2022/09/22 04:30:42;;;;;;;3.72;2.30;;;;;;;31.67;62.60;100620.56;5075457;28;66629;-39
2022/09/22 04:33:15;;;;;;;2.17;1.98;;;;;;;31.98;62.70;100668.34;5077896;28;70847;-38
2022/09/22 04:35:51;;;;;;;3.05;2.47;;;;;;;32.05;62.72;100677.19;5074488;28;67051;-39
2022/09/22 04:38:24;;;;;;;2.30;2.10;;;;;;;32.08;62.69;100672.34;5080174;28;70718;-38
2022/09/22 04:40:57;;;;;;;2.47;2.28;;;;;;;31.98;62.55;100649.34;5065709;28;66542;-39
2022/09/22 04:43:29;;;;;;;2.92;2.28;;;;;;;32.11;62.40;100661.03;5074223;28;70549;-38
2022/09/22 04:46:01;;;;;;;2.50;2.17;;;;;;;32.13;62.55;100657.03;5075251;27;66306;-40
2022/09/22 04:48:34;;;;;;;2.88;2.45;;;;;;;32.12;62.61;100643.69;5073455;28;70278;-38
2022/09/22 04:51:07;;;;;;;2.33;2.10;;;;;;;32.11;62.42;100642.88;5077408;28;66428;-40
2022/09/22 04:53:39;;;;;;;2.45;2.13;;;;;;;32.20;62.25;100635.19;5072041;28;70217;-39
2022/09/22 04:56:12;;;;;;;2.42;2.22;;;;;;;32.21;62.15;100631.44;5074057;28;67079;-39
2022/09/22 04:58:45;;;;;;;2.22;2.00;;;;;;;31.92;62.11;100573.50;5075911;28;70651;-40
2022/09/22 05:01:17;;;;;;;4.32;2.30;;;;;;;32.15;62.15;100602.50;5071787;28;67110;-39
2022/09/22 05:03:52;;;;;;;2.40;2.05;;;;;;;31.83;62.00;100537.72;5074703;28;70255;-39
2022/09/22 05:06:25;;;;;;;4.72;2.00;;;;;;;32.29;61.98;100612.09;5067317;27;66860;-37
2022/09/22 05:08:57;;;;;;;2.20;2.00;;;;;;;32.31;62.17;100609.94;5073616;28;69959;-39
2022/09/22 05:11:30;;;;;;;2.40;2.20;;;;;;;32.33;61.51;100596.16;5073085;27;67215;-38
2022/09/22 05:14:03;;;;;;;2.72;2.17;;;;;;;32.31;61.86;100588.22;5083605;27;70358;-39
2022/09/22 05:16:35;;;;;;;2.85;2.20;;;;;;;32.22;61.68;100565.22;5065392;28;66689;-38
2022/09/22 05:19:10;;;;;;;2.20;2.00;;;;;;;32.37;61.82;100579.13;5065717;28;69744;-39
2022/09/22 05:21:43;;;;;;;2.17;1.98;;;;;;;32.27;61.93;100566.16;5078224;28;67062;-40
2022/09/22 05:24:16;;;;;;;2.25;2.05;;;;;;;32.39;61.70;100598.72;5074631;27;70077;-40
2022/09/22 05:26:49;;;;;;;2.63;2.10;;;;;;;32.41;61.63;100609.38;5076808;27;66084;-40
2022/09/22 05:29:21;;;;;;;2.13;1.92;;;;;;;32.40;61.64;100594.97;5076997;28;70814;-38
2022/09/22 05:31:58;;;;;;;2.25;1.90;;;;;;;32.35;61.41;100592.13;5072155;28;67151;-40
2022/09/22 05:34:30;;;;;;;2.58;2.08;;;;;;;32.40;61.69;100608.53;5073827;28;69987;-39
2022/09/22 05:37:03;;;;;;;3.08;2.25;;;;;;;32.45;61.88;100622.22;5074465;28;65964;-37
2022/09/22 05:39:35;;;;;;;2.80;2.42;;;;;;;32.46;61.63;100617.66;5078205;27;70301;-39
2022/09/22 05:42:08;;;;;;;2.67;2.30;;;;;;;32.45;61.71;100611.34;5078919;27;66843;-39
2022/09/22 05:44:41;;;;;;;3.20;2.65;;;;;;;32.43;62.12;100597.22;5073665;28;70125;-37
2022/09/22 05:47:14;;;;;;;4.95;2.83;;;;;;;32.44;62.51;100600.75;5073857;28;67525;-38
2022/09/22 05:49:46;;;;;;;2.55;2.33;;;;;;;32.41;62.83;100593.91;5069906;28;70196;-39
2022/09/22 05:52:19;;;;;;;2.85;2.55;;;;;;;32.39;62.78;100585.16;5076509;27;66009;-38
2022/09/22 05:54:52;;;;;;;3.58;2.88;;;;;;;32.16;63.11;100547.19;5075977;28;70524;-39
2022/09/22 05:57:26;;;;;;;3.00;2.75;;;;;;;32.25;63.34;100559.31;5076726;28;66980;-37
2022/09/22 05:59:59;;;;;;;3.83;3.20;;;;;;;32.28;63.49;100567.00;5076009;28;70352;-37
2022/09/22 06:02:42;;;;;;;;;;;;;;;32.00;65.08;100571.25;5077320;28;65476;-39
2022/09/22 06:05:15;;;;;;;4.10;3.25;;;;;;;32.20;63.45;100559.22;5073427;27;69935;-37
2022/09/22 06:08:09;;;;;;;3.78;3.47;;;;;;;32.20;64.52;100553.78;5079095;27;66509;-39
2022/09/22 06:10:49;;;;;;;3.40;3.10;;;;;;;32.29;63.67;100552.38;5074333;27;70620;-38
2022/09/22 06:13:22;;;;;;;4.55;3.50;;;;;;;32.29;63.63;100538.81;5074659;28;66149;-38
2022/09/22 06:15:55;;;;;;;3.70;3.40;;;;;;;32.27;63.39;100521.94;5069080;27;70127;-38
2022/09/22 06:18:30;;;;;;;5.30;3.65;;;;;;;32.30;63.61;100515.19;5073874;28;66879;-37
2022/09/22 06:21:02;;;;;;;3.70;3.40;;;;;;;32.19;63.63;100509.53;5077351;28;70906;-37
2022/09/22 06:23:35;;;;;;;5.93;3.42;;;;;;;32.29;63.61;100511.66;5079770;28;66136;-40
2022/09/22 06:26:12;;;;;;;4.22;3.35;;;;;;;32.27;63.56;100511.06;5080479;28;70810;-38
2022/09/22 06:28:45;;;;;;;3.75;3.45;;;;;;;32.22;63.77;100498.22;5077143;28;66691;-38
2022/09/22 06:31:18;;;;;;;3.65;3.15;;;;;;;32.28;63.44;100507.28;5075348;28;70611;-38
2022/09/22 06:33:52;;;;;;;3.60;3.30;;;;;;;32.29;63.69;100508.94;5068303;28;66530;-41
2022/09/22 06:36:30;;;;;;;3.60;3.10;;;;;;;32.30;63.44;100515.19;5073141;28;71288;-38
2022/09/22 06:39:04;;;;;;;3.63;3.28;;;;;;;32.17;63.43;100497.28;5081220;27;67067;-41
2022/09/22 06:41:37;;;;;;;3.55;3.22;;;;;;;32.21;63.42;100501.19;5075070;28;70390;-41
2022/09/22 06:44:11;;;;;;;3.25;3.03;;;;;;;32.23;63.68;100499.88;5078136;28;65785;-39
2022/09/22 06:46:44;;;;;;;3.95;3.55;;;;;;;32.26;63.50;100509.41;5077270;28;69972;-39
2022/09/22 06:49:17;;;;;;;3.38;3.13;;;;;;;32.25;63.34;100507.75;5080582;27;66131;-37
2022/09/22 06:51:50;;;;;;;3.22;3.03;;;;;;;32.16;63.35;100479.34;5080326;28;70060;-38
2022/09/22 06:54:23;;;;;;;4.70;3.40;;;;;;;32.24;63.42;100492.56;5079582;28;66945;-38
2022/09/22 06:56:55;;;;;;;5.22;3.83;;;;;;;32.24;63.44;100478.97;5075141;28;70465;-38
2022/09/22 06:59:28;;;;;;;3.63;3.30;;;;;;;32.22;63.69;100476.50;5075345;28;66781;-38
2022/09/22 07:02:03;;;;;;;3.05;2.85;;;;;;;32.21;63.52;100474.03;5077310;28;70602;-38
2022/09/22 07:04:35;;;;;;;3.97;3.47;;;;;;;32.22;63.71;100479.22;5077320;28;67020;-38
2022/09/22 07:07:08;;;;;;;3.45;2.83;;;;;;;32.19;63.56;100470.72;5078495;28;70619;-38
2022/09/22 07:09:41;;;;;;;4.38;3.20;;;;;;;32.20;63.81;100480.50;5079030;28;67736;-39
2022/09/22 07:12:14;;;;;;;3.30;3.05;;;;;;;32.21;63.71;100479.47;5078250;28;70507;-38
2022/09/22 07:14:48;;;;;;;3.13;2.92;;;;;;;32.15;63.61;100472.25;5081065;27;67532;-39
2022/09/22 07:17:20;;;;;;;3.15;2.90;;;;;;;32.19;63.47;100490.53;5075852;28;71323;-39
2022/09/22 07:19:55;;;;;;;3.22;3.03;;;;;;;32.20;63.31;100496.78;5074500;28;66789;-39
2022/09/22 07:22:27;;;;;;;6.00;2.85;;;;;;;32.20;63.64;100485.94;5075730;28;70832;-39
2022/09/22 07:25:01;;;;;;;2.65;2.45;;;;;;;32.17;63.57;100472.84;5075851;28;67042;-39
2022/09/22 07:27:34;;;;;;;3.13;2.92;;;;;;;32.18;63.90;100482.63;5078375;28;70865;-38
2022/09/22 07:30:09;;;;;;;2.65;2.45;;;;;;;32.20;63.67;100477.78;5078524;27;67114;-39
2022/09/22 07:32:41;;;;;;;2.97;2.28;;;;;;;32.19;63.76;100487.00;5073765;27;71076;-38
2022/09/22 07:35:14;;;;;;;2.65;2.35;;;;;;;32.20;63.67;100485.94;5075306;28;66909;-40
2022/09/22 07:37:46;;;;;;;3.65;2.33;;;;;;;32.20;63.50;100488.66;5078332;27;70652;-38
2022/09/22 07:40:19;;;;;;;2.42;2.22;;;;;;;32.21;63.60;100483.00;5073708;27;66656;-37
2022/09/22 07:42:52;;;;;;;2.22;2.03;;;;;;;32.20;63.91;100483.22;5074485;28;70069;-38
2022/09/22 07:45:24;;;;;;;2.50;2.30;;;;;;;32.04;63.83;100466.63;5077806;28;67537;-42
2022/09/22 07:50:53;;;;;;;2.42;2.22;;;;;;;32.09;63.96;100470.50;5073365;28;66846;-39
2022/09/22 07:53:26;;;;;;;4.03;2.65;;;;;;;32.18;63.69;100486.19;5086054;27;70638;-39
2022/09/22 07:56:05;;;;;;;1.63;1.52;;;;;;;32.03;64.00;100464.97;5071684;27;66763;-40
2022/09/22 07:58:40;;;;;;;2.53;2.25;;;;;;;31.93;63.84;100445.78;5074810;28;70917;-37
2022/09/22 08:01:13;;;;;;;2.70;2.40;;;;;;;31.66;63.77;100412.84;5075801;28;66158;-40
2022/09/22 08:03:46;;;;;;;4.22;1.70;;;;;;;32.16;63.80;100495.63;5079281;28;70882;-41
2022/09/22 08:06:20;;;;;;;2.63;2.00;;;;;;;31.70;63.97;100413.19;5070923;27;66404;-41
2022/09/22 08:08:55;;;;;;;2.55;2.35;;;;;;;32.16;64.17;100501.06;5080180;27;70890;-39
2022/09/22 08:11:28;;;;;;;4.43;2.20;;;;;;;32.05;63.89;100479.13;5070672;28;66586;-39
2022/09/22 08:14:04;;;;;;;2.65;2.38;;;;;;;32.07;63.91;100480.75;5079091;28;71068;-37
2022/09/22 08:16:39;;;;;;;2.50;2.30;;;;;;;32.13;63.90;100496.13;5071339;28;66214;-36
2022/09/22 08:19:12;;;;;;;2.80;2.17;;;;;;;32.11;64.05;100490.09;5075188;27;70157;-38
2022/09/22 08:21:51;;;;;;;2.00;1.80;;;;;;;32.09;63.97;100498.47;5077394;27;67134;-38
2022/09/22 08:24:24;;;;;;;3.08;2.15;;;;;;;32.09;64.24;100484.06;5077004;28;70740;-38
2022/09/22 08:26:56;;;;;;;4.50;2.20;;;;;;;32.05;64.32;100473.69;5071857;28;66827;-39
2022/09/22 08:29:30;;;;;;;1.85;1.75;;;;;;;31.98;64.30;100464.88;5076783;28;70781;-38
2022/09/22 08:32:02;;;;;;;2.00;1.90;;;;;;;32.01;64.46;100458.97;5074809;27;67393;-40
2022/09/22 08:34:35;;;;;;;2.50;2.30;;;;;;;32.04;64.54;100463.91;5078449;28;71416;-40
2022/09/22 08:37:09;;;;;;;3.85;2.10;;;;;;;31.69;64.46;100400.72;5075032;28;66199;-39
2022/09/22 08:39:42;;;;;;;2.30;2.10;;;;;;;32.02;64.61;100460.59;5079036;27;70732;-39
2022/09/22 08:42:22;;;;;;;3.90;2.50;;;;;;;32.02;64.90;100465.22;5069686;28;67480;-38
2022/09/22 08:45:05;;;;;;;2.88;2.65;;;;;;;31.87;64.82;100443.94;5077622;27;70761;-39
2022/09/22 08:53:47;;;;;;;2.40;2.20;;;;;;;31.95;65.01;100476.16;5075482;28;66738;-38
2022/09/22 08:56:35;;;;;;;2.55;2.35;;;;;;;31.40;64.97;100387.06;5074947;28;70733;-38
2022/09/22 08:59:23;;;;;;;2.17;1.98;;;;;;;31.56;65.16;100418.03;5076791;28;66948;-37
2022/09/22 09:02:01;;;;;;;3.58;2.40;;;;;;;31.92;64.42;100467.69;5078584;27;70125;-38
2022/09/22 09:05:07;;;;;;;2.90;2.70;;;;;;;31.81;65.28;100482.88;5066710;28;66775;-38
2022/09/22 09:07:58;;;;;;;2.75;2.55;;;;;;;31.88;64.96;100467.31;5077238;28;70332;-37
2022/09/22 09:10:36;;;;;;;2.47;2.33;;;;;;;31.88;65.07;100472.75;5074549;28;66578;-39
2022/09/22 09:13:21;;;;;;;2.83;2.47;;;;;;;31.88;64.63;100471.94;5074784;27;70089;-40
2022/09/22 09:16:14;;;;;;;2.97;2.60;;;;;;;31.89;64.87;100468.13;5069757;27;67202;-39
2022/09/22 09:19:03;;;;;;;5.25;3.20;;;;;;;31.64;66.52;100473.81;5071774;28;69953;-42
2022/09/22 09:21:38;;;;;;;3.78;3.20;;;;;;;31.06;67.19;100391.34;5077881;28;66825;-40
2022/09/22 09:24:19;;;;;;;4.10;3.67;;;;;;;31.43;67.91;100470.63;5075178;28;70867;-40
2022/09/22 09:27:20;;;;;;;4.07;3.67;;;;;;;31.32;68.07;100453.25;5072922;28;66318;-39
2022/09/22 09:30:02;;;;;;;5.28;3.25;;;;;;;31.28;68.62;100452.03;5075649;27;69965;-40
2022/09/22 09:32:59;;;;;;;4.70;4.22;;;;;;;31.21;68.98;100459.47;5072559;28;66882;-42
2022/09/22 09:35:47;;;;;;;6.15;3.33;;;;;;;31.24;68.84;100466.31;5081570;27;70829;-39
2022/09/22 09:38:34;;;;;;;3.60;3.30;;;;;;;31.28;68.94;100475.63;5079129;28;65901;-42
2022/09/22 09:41:20;;;;;;;4.68;3.60;;;;;;;30.41;69.41;100346.06;5082422;28;70981;-40
2022/09/22 09:43:55;;;;;;;6.38;4.15;;;;;;;31.27;69.39;100492.94;5082005;27;66216;-41
2022/09/22 09:46:51;;;;;;;5.85;3.90;;;;;;;31.16;69.94;100500.78;5080758;27;70366;-42
2022/09/22 09:49:24;;;;;;;4.13;3.83;;;;;;;31.08;69.96;100476.75;5080502;27;66397;-40
2022/09/22 09:52:00;;;;;;;4.47;4.07;;;;;;;31.26;70.04;100504.81;5079500;27;70531;-39
2022/09/22 09:54:32;;;;;;;6.53;4.35;;;;;;;31.14;70.10;100502.91;5076605;28;67718;-41
2022/09/22 09:57:17;;;;;;;5.07;4.47;;;;;;;31.23;70.27;100529.66;5080613;28;70703;-40
2022/09/22 10:00:31;;;;;;;7.32;3.92;;;;;;;31.09;70.76;100529.03;5082194;28;67351;-39
2022/09/22 10:03:03;;;;;;;4.93;4.50;;;;;;;31.21;70.52;100539.94;5036195;28;70607;-39
2022/09/22 10:05:36;;;;;;;4.50;4.20;;;;;;;31.22;70.12;100541.59;5076972;27;66423;-43
2022/09/22 10:08:23;;;;;;;4.57;4.28;;;;;;;31.22;70.21;100547.81;5078599;28;69721;-39
2022/09/22 10:10:58;;;;;;;6.85;4.18;;;;;;;30.75;70.27;100476.38;5081224;28;66987;-38
2022/09/22 10:13:33;;;;;;;4.43;4.03;;;;;;;31.27;70.25;100569.63;5078046;28;70312;-40
2022/09/22 10:16:22;;;;;;;7.68;3.78;;;;;;;31.01;70.67;100546.47;5078917;27;66121;-41
2022/09/22 10:18:58;;;;;;;4.28;3.88;;;;;;;31.24;70.51;100572.00;5077474;27;70711;-40
2022/09/22 10:21:30;;;;;;;6.07;4.40;;;;;;;31.10;71.06;100564.03;5078848;27;66203;-42
2022/09/22 10:24:26;;;;;;;5.72;4.05;;;;;;;30.78;70.75;100517.34;5078466;27;69781;-41
2022/09/22 10:26:59;;;;;;;5.10;4.47;;;;;;;31.19;70.90;100579.97;5077343;28;66963;-40
2022/09/22 10:29:40;;;;;;;6.75;4.22;;;;;;;31.23;71.04;100586.56;5080595;27;70148;-39
2022/09/22 10:32:16;;;;;;;9.77;3.95;;;;;;;31.23;71.55;100587.44;5077256;28;66305;-41
2022/09/22 10:34:53;;;;;;;8.77;4.32;;;;;;;31.25;71.91;100601.56;5077182;28;70935;-38
2022/09/22 10:37:29;;;;;;;3.72;3.42;;;;;;;30.85;71.88;100526.25;5079722;28;66744;-39
2022/09/22 10:40:13;;;;;;;9.32;4.15;;;;;;;30.88;71.97;100547.44;5079462;28;70610;-38
2022/09/22 10:42:47;;;;;;;6.43;4.35;;;;;;;31.25;72.21;100606.16;5079708;28;66058;-39
2022/09/22 10:45:33;;;;;;;14.65;4.28;;;;;;;31.25;72.59;100611.56;5077345;27;70848;-38
2022/09/22 10:48:25;;;;;;;4.80;3.72;;;;;;;31.36;71.06;100605.41;5074143;28;67177;-39
2022/09/22 10:51:35;;;;;;;3.33;3.13;;;;;;;31.40;70.19;100606.59;5075942;28;70786;-39
2022/09/22 10:54:23;;;;;;;4.22;3.63;;;;;;;31.43;70.04;100617.00;5054326;28;66033;-39
2022/09/22 10:57:08;;;;;;;4.80;4.13;;;;;;;31.49;69.26;100607.94;5080130;28;70193;-40
2022/09/22 11:00:11;;;;;;;7.28;3.55;;;;;;;31.47;69.56;100626.28;5073663;28;66440;-40
2022/09/22 11:03:24;;;;;;;4.03;3.28;;;;;;;31.51;69.28;100629.38;5071281;28;70596;-40
2022/09/22 11:13:01;;;;;;;4.28;3.40;;;;;;;31.57;69.00;100650.16;5074467;28;66719;-40
2022/09/22 11:15:43;;;;;;;3.95;3.65;;;;;;;31.64;68.81;100653.59;5073577;28;70642;-40
2022/09/22 11:18:32;;;;;;;4.50;3.88;;;;;;;31.68;69.28;100665.63;5077255;28;65822;-39
2022/09/22 11:21:09;;;;;;;4.25;3.65;;;;;;;31.69;69.01;100658.31;5072016;27;70581;-40
2022/09/22 11:23:44;;;;;;;4.22;3.83;;;;;;;31.72;68.71;100661.38;5076520;28;66190;-39
2022/09/22 11:26:27;;;;;;;4.32;3.88;;;;;;;31.69;68.79;100661.84;5074595;27;70361;-39
2022/09/22 11:29:19;;;;;;;4.68;4.28;;;;;;;31.73;68.46;100663.06;5076349;28;66804;-39
2022/09/22 11:32:04;;;;;;;5.15;4.32;;;;;;;31.69;68.91;100664.56;5073914;27;70973;-39
2022/09/22 11:34:48;;;;;;;5.20;4.70;;;;;;;31.72;68.91;100666.00;5074930;28;67059;-39
2022/09/22 11:38:00;;;;;;;5.63;3.80;;;;;;;31.61;68.92;100671.13;5076944;28;69962;-39
2022/09/22 11:40:59;;;;;;;5.68;4.05;;;;;;;31.69;68.67;100682.72;5078234;27;66714;-39
2022/09/22 11:43:54;;;;;;;5.28;4.78;;;;;;;31.60;69.16;100684.94;5074502;28;70887;-39
2022/09/22 11:46:51;;;;;;;4.35;4.05;;;;;;;31.59;68.86;100685.97;5076867;28;66120;-37
2022/09/22 11:49:45;;;;;;;5.00;4.60;;;;;;;31.15;69.19;100623.78;5067940;27;70772;-39
2022/09/22 11:52:32;;;;;;;4.90;4.47;;;;;;;31.60;69.15;100696.59;5076601;28;66088;-38
2022/09/22 11:55:28;;;;;;;4.55;4.15;;;;;;;31.72;69.18;100701.25;5075768;28;69777;-39
2022/09/22 11:58:07;;;;;;;5.07;4.68;;;;;;;31.67;68.63;100701.94;5074443;27;66990;-40
2022/09/22 12:00:49;;;;;;;5.68;4.75;;;;;;;31.65;69.19;100695.06;5077695;27;70702;-39
2022/09/22 12:04:13;;;;;;;4.90;4.60;;;;;;;31.51;69.22;100713.41;5077738;28;66620;-39
2022/09/22 12:06:51;;;;;;;4.57;4.18;;;;;;;31.67;68.63;100711.94;5063809;28;70541;-40
2022/09/22 12:09:36;;;;;;;4.70;4.13;;;;;;;31.59;68.86;100703.09;5076866;28;66105;-39
2022/09/22 12:12:16;;;;;;;5.30;4.90;;;;;;;31.15;68.78;100634.63;5074897;28;70885;-37
2022/09/22 12:15:08;;;;;;;5.57;5.07;;;;;;;31.06;68.86;100629.72;5078892;28;66035;-39
2022/09/22 12:17:49;;;;;;;;;;;;;;;31.28;69.97;100736.59;5076363;28;71182;-40
2022/09/22 12:20:58;;;;;;;5.30;4.90;;;;;;;31.50;69.38;100742.41;5069891;28;66676;-40
2022/09/22 12:23:30;;;;;;;5.97;5.47;;;;;;;31.62;69.27;100747.88;5075769;28;70893;-40
2022/09/22 12:26:14;;;;;;;6.47;5.82;;;;;;;31.58;68.97;100738.56;5073609;28;67016;-41
2022/09/22 12:28:48;;;;;;;7.45;6.55;;;;;;;31.65;68.85;100746.59;5074260;28;70601;-40
2022/09/22 12:31:30;;;;;;;8.88;7.22;;;;;;;31.28;69.23;100687.00;5079807;28;66948;-40